Time;durP1;ratioP1;P1;durP2;ratioP2;P2;SDS_P1;SDS_P2;PMS_P1;PMS_P2;Temp;Humidity;BMP_temperature;BMP_pressure;BME280_temperature;BME280_humidity;BME280_pressure;Samples;Min_cycle;Max_cycle;Signal;HPM_P1;HPM_P2
2024/04/12 00:01:08;;;;;;;0.90;0.90;;;14.30;99.90;;;;;;5386145;26;20455;-81
2024/04/12 00:03:38;;;;;;;0.50;0.40;;;14.30;99.90;;;;;;5385898;26;20459;-81
2024/04/12 00:06:06;;;;;;;0.50;0.40;;;14.30;99.90;;;;;;5385895;26;20516;-82
2024/04/12 00:08:34;;;;;;;0.50;0.40;;;14.30;99.90;;;;;;5385691;26;20550;-82
2024/04/12 00:11:07;;;;;;;0.83;0.80;;;14.30;99.90;;;;;;5385089;26;20552;-81
2024/04/12 00:13:40;;;;;;;0.50;0.40;;;14.30;99.90;;;;;;5385117;26;20471;-82
2024/04/12 00:16:08;;;;;;;0.50;0.40;;;14.40;99.90;;;;;;5385488;26;20514;-81
2024/04/12 00:18:37;;;;;;;0.60;0.60;;;14.40;99.90;;;;;;5384634;26;20464;-81
2024/04/12 00:21:05;;;;;;;0.50;0.40;;;14.30;99.90;;;;;;5385374;26;20791;-82
2024/04/12 00:23:33;;;;;;;0.50;0.50;;;14.30;99.90;;;;;;5384491;26;21105;-81
2024/04/12 00:26:02;;;;;;;1.77;1.03;;;14.30;99.90;;;;;;5385102;26;20543;-82
2024/04/12 00:28:32;;;;;;;0.50;0.40;;;14.30;99.90;;;;;;5384982;26;20508;-80
2024/04/12 00:30:59;;;;;;;0.50;0.40;;;14.30;99.90;;;;;;5385414;26;20444;-80
2024/04/12 00:33:31;;;;;;;0.50;0.50;;;14.30;99.90;;;;;;5385057;26;20451;-82
2024/04/12 00:35:58;;;;;;;0.50;0.40;;;14.30;99.90;;;;;;5385472;26;20448;-82
2024/04/12 00:38:27;;;;;;;0.50;0.40;;;14.30;99.90;;;;;;5384253;26;20478;-80
2024/04/12 00:40:53;;;;;;;0.50;0.37;;;14.30;99.90;;;;;;5384441;26;20498;-81
2024/04/12 00:43:27;;;;;;;0.50;0.40;;;14.30;99.90;;;;;;5384904;26;20537;-82
2024/04/12 00:45:54;;;;;;;0.50;0.37;;;14.30;99.90;;;;;;5385360;26;20212;-82
2024/04/12 00:48:25;;;;;;;2.50;2.40;;;14.30;99.90;;;;;;5384518;26;20535;-82
2024/04/12 00:50:52;;;;;;;0.50;0.40;;;14.30;99.90;;;;;;5384603;26;20555;-82
2024/04/12 00:53:22;;;;;;;0.50;0.40;;;14.30;99.90;;;;;;5386143;26;20456;-81
2024/04/12 00:56:00;;;;;;;0.60;0.53;;;14.30;99.90;;;;;;5389783;26;20498;-81
2024/04/12 00:58:32;;;;;;;0.50;0.40;;;14.30;99.90;;;;;;5388729;26;20464;-80
2024/04/12 01:01:10;;;;;;;0.80;0.73;;;14.30;99.90;;;;;;5388504;26;20443;-79
2024/04/12 01:03:45;;;;;;;0.50;0.40;;;14.30;99.90;;;;;;5382384;26;20462;-80
2024/04/12 01:06:15;;;;;;;0.50;0.40;;;14.30;99.90;;;;;;5381731;26;20526;-81
2024/04/12 01:08:45;;;;;;;1.77;1.47;;;14.30;99.90;;;;;;5380651;26;20586;-82
2024/04/12 01:11:13;;;;;;;0.50;0.40;;;14.20;99.90;;;;;;5380727;26;20880;-80
2024/04/12 01:13:46;;;;;;;0.50;0.40;;;14.20;99.90;;;;;;5380261;26;20559;-80
2024/04/12 01:16:11;;;;;;;0.50;0.40;;;14.20;99.90;;;;;;5380480;26;20993;-80
2024/04/12 01:18:42;;;;;;;0.50;0.40;;;14.30;99.90;;;;;;5380427;26;20531;-80
2024/04/12 01:21:10;;;;;;;2.10;2.00;;;14.30;99.90;;;;;;5380476;26;20282;-79
2024/04/12 01:23:40;;;;;;;1.47;1.37;;;14.20;99.90;;;;;;5379822;26;20458;-80
2024/04/12 01:26:09;;;;;;;0.50;0.40;;;14.20;99.90;;;;;;5380124;26;20459;-80
2024/04/12 01:28:38;;;;;;;1.10;0.50;;;14.20;99.90;;;;;;5380126;26;20455;-81
2024/04/12 01:31:05;;;;;;;1.07;0.97;;;14.20;99.90;;;;;;5380089;26;20571;-80
2024/04/12 01:33:36;;;;;;;0.50;0.50;;;14.20;99.90;;;;;;5383060;26;20538;-78
2024/04/12 01:36:05;;;;;;;1.90;1.53;;;14.10;99.90;;;;;;5383544;26;20798;-78
2024/04/12 01:38:36;;;;;;;0.50;0.50;;;14.10;99.90;;;;;;5382871;26;20519;-79
2024/04/12 01:41:05;;;;;;;0.50;0.50;;;14.10;99.90;;;;;;5383190;26;20506;-79
2024/04/12 01:43:38;;;;;;;0.50;0.50;;;14.10;99.90;;;;;;5382725;26;20443;-79
2024/04/12 01:46:04;;;;;;;0.50;0.40;;;14.10;99.90;;;;;;5383115;26;20528;-80
2024/04/12 01:48:35;;;;;;;0.60;0.60;;;14.10;99.90;;;;;;5383012;26;20506;-79
2024/04/12 01:51:02;;;;;;;0.50;0.40;;;14.20;99.90;;;;;;5382691;26;21083;-80
2024/04/12 01:53:36;;;;;;;1.03;1.03;;;14.10;99.90;;;;;;5382323;26;20573;-81
2024/04/12 01:56:09;;;;;;;0.60;0.60;;;14.10;99.90;;;;;;5382758;26;20490;-80
2024/04/12 01:58:42;;;;;;;0.50;0.37;;;14.10;99.90;;;;;;5382629;26;20586;-79
2024/04/12 02:01:11;;;;;;;0.50;0.40;;;14.10;99.90;;;;;;5382644;26;20463;-80
2024/04/12 02:03:40;;;;;;;0.87;0.87;;;14.10;99.90;;;;;;5385189;26;20454;-82
2024/04/12 02:06:06;;;;;;;0.87;0.87;;;14.10;99.90;;;;;;5388364;26;20554;-82
2024/04/12 02:08:35;;;;;;;0.50;0.40;;;14.10;99.90;;;;;;5387277;26;20517;-81
2024/04/12 02:11:06;;;;;;;0.50;0.50;;;14.10;99.90;;;;;;5386936;26;20462;-82
2024/04/12 02:13:40;;;;;;;0.50;0.40;;;14.10;99.90;;;;;;5387676;26;20455;-81
2024/04/12 02:16:10;;;;;;;0.50;0.40;;;14.00;99.90;;;;;;5386899;26;20796;-82
2024/04/12 02:18:44;;;;;;;0.50;0.50;;;14.00;99.90;;;;;;5386910;26;20470;-81
2024/04/12 02:21:10;;;;;;;0.50;0.40;;;14.00;99.90;;;;;;5387050;26;20511;-82
2024/04/12 02:23:40;;;;;;;1.30;1.20;;;14.00;99.90;;;;;;5386432;26;20523;-82
2024/04/12 02:26:08;;;;;;;0.60;0.60;;;14.00;99.90;;;;;;5387078;26;20463;-82
2024/04/12 02:28:37;;;;;;;0.50;0.40;;;14.00;99.90;;;;;;5386535;26;20468;-79
2024/04/12 02:31:08;;;;;;;0.50;0.40;;;14.00;99.90;;;;;;5386429;26;20506;-80
2024/04/12 02:33:42;;;;;;;0.50;0.40;;;13.90;99.90;;;;;;5386725;26;20799;-81
2024/04/12 02:36:11;;;;;;;0.50;0.40;;;13.90;99.90;;;;;;5386942;26;20451;-82
2024/04/12 02:38:41;;;;;;;0.50;0.40;;;13.90;99.90;;;;;;5386128;26;20546;-82
2024/04/12 02:41:13;;;;;;;1.00;1.00;;;13.90;99.90;;;;;;5386881;26;20547;-82
2024/04/12 02:43:42;;;;;;;3.73;3.10;;;14.00;99.90;;;;;;5385590;26;20462;-81
2024/04/12 02:46:10;;;;;;;2.83;1.80;;;14.00;99.90;;;;;;5386416;26;20438;-82
2024/04/12 02:48:43;;;;;;;0.50;0.40;;;13.90;99.90;;;;;;5386801;26;21060;-81
2024/04/12 02:51:12;;;;;;;1.37;1.20;;;13.80;99.90;;;;;;5386021;26;20500;-81
2024/04/12 02:53:42;;;;;;;0.50;0.40;;;13.70;99.90;;;;;;5386220;26;20522;-81
2024/04/12 02:56:11;;;;;;;0.50;0.40;;;13.60;99.90;;;;;;5386296;26;20452;-82
2024/04/12 02:58:41;;;;;;;0.50;0.40;;;13.60;99.90;;;;;;5385427;26;20521;-82
2024/04/12 03:01:10;;;;;;;0.50;0.40;;;13.60;99.90;;;;;;5386304;26;20518;-81
2024/04/12 03:03:45;;;;;;;3.63;3.33;;;13.60;99.90;;;;;;5385918;26;20455;-82
2024/04/12 03:06:11;;;;;;;0.50;0.40;;;13.60;99.90;;;;;;5385886;26;20450;-81
2024/04/12 03:08:40;;;;;;;1.30;1.20;;;13.60;99.90;;;;;;5385714;26;20487;-80
2024/04/12 03:11:14;;;;;;;4.10;2.40;;;13.60;99.90;;;;;;5385607;26;20471;-82
2024/04/12 03:13:44;;;;;;;0.50;0.40;;;13.60;99.90;;;;;;5385003;26;20463;-82
2024/04/12 03:16:13;;;;;;;0.50;0.40;;;13.60;99.90;;;;;;5385723;26;20448;-81
2024/04/12 03:18:46;;;;;;;0.93;0.93;;;13.60;99.90;;;;;;5385040;26;20478;-81
2024/04/12 03:21:13;;;;;;;0.73;0.67;;;13.60;99.90;;;;;;5384944;26;20515;-81
2024/04/12 03:23:44;;;;;;;0.60;0.60;;;13.60;99.90;;;;;;5385266;26;20455;-79
2024/04/12 03:26:11;;;;;;;1.67;0.83;;;13.60;99.90;;;;;;5385156;26;20573;-81
2024/04/12 03:28:39;;;;;;;3.50;1.70;;;13.60;99.90;;;;;;5385264;26;20516;-81
2024/04/12 03:31:07;;;;;;;1.13;1.13;;;13.60;99.90;;;;;;5384519;26;20542;-80
2024/04/12 03:33:42;;;;;;;0.50;0.40;;;13.50;99.90;;;;;;5384590;26;20498;-81
2024/04/12 03:36:26;;;;;;;1.80;1.67;;;13.50;99.90;;;;;;5384103;26;20467;-81
2024/04/12 03:39:24;;;;;;;0.50;0.40;;;13.40;99.90;;;;;;5384404;26;20798;-80
2024/04/12 03:41:44;;;;;;;1.57;1.57;;;13.40;99.90;;;;;;5383925;26;21021;-80
2024/04/12 03:44:13;;;;;;;0.50;0.40;;;13.50;99.90;;;;;;5387061;26;20519;-81
2024/04/12 03:46:40;;;;;;;0.90;0.90;;;13.50;99.90;;;;;;5387001;26;20455;-81
2024/04/12 03:49:13;;;;;;;0.60;0.50;;;13.50;99.90;;;;;;5386541;26;20545;-81
2024/04/12 03:51:46;;;;;;;0.50;0.40;;;13.50;99.90;;;;;;5385426;26;21057;-80
2024/04/12 03:54:17;;;;;;;0.50;0.40;;;13.40;99.90;;;;;;5380525;26;20978;-80
2024/04/12 03:56:44;;;;;;;1.27;1.27;;;13.40;99.90;;;;;;5382066;26;20447;-81
2024/04/12 03:59:13;;;;;;;0.50;0.40;;;13.40;99.90;;;;;;5381859;26;20478;-80
2024/04/12 04:01:44;;;;;;;0.50;0.40;;;13.40;99.90;;;;;;5381480;26;20569;-81
2024/04/12 04:04:17;;;;;;;0.70;0.60;;;13.40;99.90;;;;;;5387348;26;20459;-82
2024/04/12 04:06:50;;;;;;;0.50;0.40;;;13.40;99.90;;;;;;5385114;26;20538;-82
2024/04/12 04:09:19;;;;;;;1.33;1.23;;;13.40;99.90;;;;;;5385427;26;20897;-81
2024/04/12 04:11:48;;;;;;;0.50;0.50;;;13.40;99.90;;;;;;5385303;26;20799;-82
2024/04/12 04:14:19;;;;;;;1.60;1.50;;;13.40;99.90;;;;;;5384725;26;20460;-81
2024/04/12 04:16:50;;;;;;;0.93;0.90;;;13.40;99.90;;;;;;5384855;26;20492;-81
2024/04/12 04:19:17;;;;;;;0.60;0.60;;;13.40;99.90;;;;;;5385212;26;20463;-81
2024/04/12 04:21:48;;;;;;;0.87;0.60;;;13.40;99.90;;;;;;5385141;26;20998;-81
2024/04/12 04:24:14;;;;;;;0.50;0.40;;;13.40;99.90;;;;;;5385101;26;20568;-82
2024/04/12 04:26:44;;;;;;;2.17;2.07;;;13.30;99.90;;;;;;5385170;26;20507;-82
2024/04/12 04:29:09;;;;;;;0.50;0.40;;;13.30;99.90;;;;;;5384838;26;20489;-82
2024/04/12 04:31:49;;;;;;;0.50;0.40;;;13.30;99.90;;;;;;5385106;26;20447;-82
2024/04/12 04:34:17;;;;;;;1.03;0.93;;;13.30;99.90;;;;;;5384924;26;20212;-81
2024/04/12 04:36:55;;;;;;;0.50;0.40;;;13.20;99.90;;;;;;5385053;26;20451;-82
2024/04/12 04:39:23;;;;;;;0.50;0.50;;;13.20;99.90;;;;;;5383816;26;20568;-82
2024/04/12 04:41:52;;;;;;;0.70;0.70;;;13.20;99.90;;;;;;5385416;26;20466;-81
2024/04/12 04:44:18;;;;;;;0.50;0.40;;;13.20;99.90;;;;;;5385341;26;21026;-80
2024/04/12 04:46:47;;;;;;;0.50;0.40;;;13.10;99.90;;;;;;5385610;26;20455;-81
2024/04/12 04:49:14;;;;;;;0.80;0.70;;;13.10;99.90;;;;;;5420458;26;20566;-81
2024/04/12 04:51:43;;;;;;;0.50;0.40;;;13.10;99.90;;;;;;5423995;26;20544;-81
2024/04/12 04:54:13;;;;;;;0.60;0.60;;;13.00;99.90;;;;;;5421096;26;20521;-81
2024/04/12 04:56:42;;;;;;;0.87;0.87;;;13.00;99.90;;;;;;5420891;26;20475;-80
2024/04/12 04:59:08;;;;;;;0.50;0.40;;;13.00;99.90;;;;;;5420851;26;20606;-81
2024/04/12 05:01:36;;;;;;;0.50;0.40;;;13.00;99.90;;;;;;5420454;26;20442;-80
2024/04/12 05:04:03;;;;;;;1.23;1.23;;;13.00;99.90;;;;;;5420391;26;20469;-81
2024/04/12 05:06:31;;;;;;;0.50;0.40;;;13.00;99.90;;;;;;5422380;26;20449;-81
2024/04/12 05:09:00;;;;;;;1.00;0.70;;;13.00;99.90;;;;;;5424080;26;20604;-81
2024/04/12 05:11:31;;;;;;;0.50;0.40;;;13.00;99.90;;;;;;5424134;26;20996;-81
2024/04/12 05:13:58;;;;;;;0.50;0.50;;;13.00;99.90;;;;;;5424428;26;20495;-81
2024/04/12 05:16:26;;;;;;;0.60;0.50;;;12.90;99.90;;;;;;5424139;26;20464;-81
2024/04/12 05:18:53;;;;;;;3.03;0.50;;;12.90;99.90;;;;;;5423963;26;20556;-81
2024/04/12 05:21:23;;;;;;;0.50;0.40;;;12.90;99.90;;;;;;5423814;26;20537;-81
2024/04/12 05:23:51;;;;;;;0.60;0.60;;;12.90;99.90;;;;;;5423175;26;20457;-79
2024/04/12 05:26:20;;;;;;;0.50;0.40;;;12.90;99.90;;;;;;5423631;26;20445;-82
2024/04/12 05:28:49;;;;;;;0.70;0.70;;;12.90;99.90;;;;;;5424013;26;20506;-81
2024/04/12 05:31:19;;;;;;;0.50;0.40;;;13.00;99.90;;;;;;5423976;26;20539;-81
2024/04/12 05:33:45;;;;;;;0.50;0.40;;;13.00;99.90;;;;;;5423693;26;21042;-81
2024/04/12 05:36:16;;;;;;;1.13;0.83;;;13.00;99.90;;;;;;5423857;26;20532;-82
2024/04/12 05:38:45;;;;;;;3.97;1.23;;;13.00;99.90;;;;;;5423484;26;20226;-81
2024/04/12 05:41:15;;;;;;;0.50;0.40;;;13.00;99.90;;;;;;5424101;26;20456;-81
2024/04/12 05:43:41;;;;;;;1.90;1.80;;;13.10;99.90;;;;;;5423223;26;20441;-81
2024/04/12 05:46:12;;;;;;;5.90;1.43;;;13.10;99.90;;;;;;5423614;26;20569;-81
2024/04/12 05:48:39;;;;;;;2.70;2.50;;;13.10;99.90;;;;;;5423283;26;20305;-81
2024/04/12 05:51:09;;;;;;;0.60;0.40;;;13.10;99.90;;;;;;5424132;26;20808;-81
2024/04/12 05:53:35;;;;;;;3.33;3.13;;;13.20;99.90;;;;;;5423305;26;20845;-80
2024/04/12 05:58:48;;;;;;;1.07;0.70;;;13.20;99.90;;;;;;5425182;26;20532;-81
2024/04/12 06:01:19;;;;;;;1.80;1.60;;;13.20;99.90;;;;;;5423364;26;20462;-81
2024/04/12 06:03:48;;;;;;;0.50;0.40;;;13.30;99.90;;;;;;5422981;26;20501;-80
2024/04/12 06:06:14;;;;;;;0.50;0.40;;;13.30;99.90;;;;;;5422522;26;20992;-81
2024/04/12 06:08:45;;;;;;;0.50;0.40;;;13.30;99.90;;;;;;5423237;26;20470;-83
2024/04/12 06:11:13;;;;;;;0.50;0.40;;;13.40;99.90;;;;;;5422645;26;20518;-81
2024/04/12 06:13:43;;;;;;;5.20;1.73;;;13.30;99.90;;;;;;5422633;26;20461;-81
2024/04/12 06:16:09;;;;;;;3.70;2.10;;;13.30;99.90;;;;;;5422914;26;20589;-80
2024/04/12 06:18:40;;;;;;;1.10;0.80;;;13.30;99.90;;;;;;5423111;26;20462;-81
2024/04/12 06:21:10;;;;;;;2.10;1.40;;;13.30;99.90;;;;;;5424087;26;20220;-82
2024/04/12 06:23:38;;;;;;;0.50;0.40;;;13.20;99.90;;;;;;5423420;26;20450;-82
2024/04/12 06:26:04;;;;;;;2.33;0.70;;;13.20;99.90;;;;;;5423363;26;20469;-82
2024/04/12 06:28:36;;;;;;;1.53;1.10;;;13.30;99.90;;;;;;5423479;26;20463;-82
2024/04/12 06:31:03;;;;;;;0.80;0.80;;;13.30;99.90;;;;;;5423759;26;20931;-83
2024/04/12 06:33:31;;;;;;;0.50;0.40;;;13.40;99.90;;;;;;5423131;26;20494;-81
2024/04/12 06:36:04;;;;;;;1.37;1.27;;;13.40;99.90;;;;;;5424519;26;20496;-82
2024/04/12 06:38:33;;;;;;;2.13;0.60;;;13.40;99.90;;;;;;5424642;26;20577;-82
2024/04/12 06:41:00;;;;;;;0.50;0.40;;;13.50;99.90;;;;;;5423577;26;20601;-82
2024/04/12 06:43:29;;;;;;;0.50;0.40;;;13.50;99.90;;;;;;5423345;26;20568;-83
2024/04/12 06:45:58;;;;;;;0.50;0.40;;;13.60;99.90;;;;;;5423245;26;20798;-82
2024/04/12 06:48:26;;;;;;;4.10;2.00;;;13.70;99.90;;;;;;5423345;26;20546;-83
2024/04/12 06:50:54;;;;;;;0.50;0.40;;;13.80;99.90;;;;;;5423908;26;20608;-82
2024/04/12 06:53:25;;;;;;;2.70;2.50;;;13.90;99.90;;;;;;5423514;26;20513;-82
2024/04/12 06:55:59;;;;;;;0.50;0.40;;;13.80;99.90;;;;;;5425107;26;20569;-82
2024/04/12 06:58:27;;;;;;;0.63;0.60;;;13.90;99.90;;;;;;5423002;26;20548;-81
2024/04/12 07:00:54;;;;;;;0.60;0.60;;;13.90;99.90;;;;;;5421520;26;20457;-80
2024/04/12 07:03:22;;;;;;;0.97;0.60;;;13.90;99.90;;;;;;5420178;26;20450;-82
2024/04/12 07:05:48;;;;;;;0.53;0.53;;;13.90;99.90;;;;;;5419712;26;20449;-81
2024/04/12 07:08:18;;;;;;;0.80;0.80;;;13.90;99.90;;;;;;5419806;26;21036;-80
2024/04/12 07:10:48;;;;;;;0.90;0.90;;;13.90;99.90;;;;;;5419489;26;20495;-80
2024/04/12 07:13:21;;;;;;;2.93;2.53;;;13.90;99.90;;;;;;5417715;26;21062;-81
2024/04/12 07:15:48;;;;;;;3.07;0.60;;;13.90;99.90;;;;;;5418193;26;20458;-82
2024/04/12 07:18:22;;;;;;;0.50;0.40;;;13.90;99.90;;;;;;5418614;26;20482;-81
2024/04/12 07:20:48;;;;;;;1.03;0.97;;;13.90;99.90;;;;;;5418538;26;20498;-81
2024/04/12 07:23:18;;;;;;;0.50;0.30;;;14.00;99.90;;;;;;5423705;26;20517;-82
2024/04/12 07:25:46;;;;;;;1.27;1.17;;;14.10;99.90;;;;;;5415092;26;20471;-81
2024/04/12 07:28:16;;;;;;;0.50;0.40;;;14.10;99.90;;;;;;5420768;26;20522;-83
2024/04/12 07:30:44;;;;;;;0.93;0.93;;;14.20;99.90;;;;;;5421770;26;20566;-82
2024/04/12 07:33:14;;;;;;;1.70;0.80;;;14.30;99.90;;;;;;5421921;26;20569;-82
2024/04/12 07:35:48;;;;;;;1.97;1.80;;;14.30;99.90;;;;;;5421895;26;21109;-83
2024/04/12 07:38:14;;;;;;;1.23;1.13;;;14.40;99.90;;;;;;5425609;26;20518;-81
2024/04/12 07:40:46;;;;;;;1.37;0.60;;;14.30;99.90;;;;;;5426337;26;20450;-81
2024/04/12 07:43:14;;;;;;;1.43;0.90;;;14.30;99.90;;;;;;5426840;26;20462;-81
2024/04/12 07:45:44;;;;;;;1.80;1.70;;;14.50;99.90;;;;;;5426720;26;21056;-83
2024/04/12 07:48:23;;;;;;;1.83;1.73;;;14.60;99.90;;;;;;5423101;26;20839;-81
2024/04/12 07:50:55;;;;;;;8.53;1.67;;;14.70;99.90;;;;;;5421439;26;20553;-83
2024/04/12 07:53:21;;;;;;;0.50;0.40;;;14.80;99.90;;;;;;5422467;26;20465;-82
2024/04/12 07:55:58;;;;;;;0.50;0.40;;;14.80;99.90;;;;;;5423669;26;20482;-82
2024/04/12 07:58:27;;;;;;;0.50;0.40;;;14.80;99.90;;;;;;5422158;26;20469;-81
2024/04/12 08:01:09;;;;;;;9.00;2.20;;;14.90;99.90;;;;;;5423975;26;20453;-82
2024/04/12 08:03:36;;;;;;;0.50;0.40;;;14.80;99.90;;;;;;5424959;26;20446;-83
2024/04/12 08:06:05;;;;;;;0.60;0.60;;;14.90;99.90;;;;;;5423745;26;20559;-82
2024/04/12 08:08:43;;;;;;;1.70;0.83;;;14.90;99.90;;;;;;5424468;26;20598;-83
2024/04/12 08:11:31;;;;;;;1.17;0.93;;;14.90;99.90;;;;;;5423650;26;20988;-82
2024/04/12 08:14:05;;;;;;;0.60;0.60;;;14.90;99.90;;;;;;5423377;26;20544;-82
2024/04/12 08:16:38;;;;;;;0.50;0.40;;;15.00;99.90;;;;;;5422991;26;20539;-82
2024/04/12 08:19:11;;;;;;;0.50;0.40;;;14.90;99.90;;;;;;5422679;26;20513;-82
2024/04/12 08:21:43;;;;;;;2.00;1.33;;;15.00;99.90;;;;;;5405583;26;20836;-82
2024/04/12 08:24:11;;;;;;;0.60;0.50;;;15.10;99.90;;;;;;5421812;26;20514;-81
2024/04/12 08:26:45;;;;;;;4.10;2.20;;;15.20;99.90;;;;;;5421782;26;20521;-81
2024/04/12 08:29:23;;;;;;;11.93;1.47;;;15.30;99.90;;;;;;5422264;26;20521;-83
2024/04/12 08:31:59;;;;;;;14.93;2.87;;;15.30;99.90;;;;;;5422068;26;20469;-83
2024/04/12 08:34:26;;;;;;;3.40;3.10;;;15.30;99.90;;;;;;5422606;26;20946;-80
2024/04/12 08:36:55;;;;;;;69.53;3.20;;;15.30;99.90;;;;;;5422276;26;20515;-83
2024/04/12 08:39:29;;;;;;;1.87;1.77;;;15.40;99.90;;;;;;5420571;26;20767;-83
2024/04/12 08:42:04;;;;;;;1.63;1.43;;;15.60;99.90;;;;;;5424967;26;21127;-83
2024/04/12 08:44:35;;;;;;;1.10;1.00;;;15.80;99.90;;;;;;5424673;26;20564;-81
2024/04/12 08:47:30;;;;;;;0.60;0.50;;;15.90;99.90;;;;;;5425208;26;20550;-82
2024/04/12 08:50:03;;;;;;;0.50;0.40;;;16.00;99.90;;;;;;5426287;26;20465;-83
2024/04/12 08:52:43;;;;;;;0.50;0.37;;;16.00;99.90;;;;;;5424019;26;20449;-80
2024/04/12 08:55:13;;;;;;;2.00;1.17;;;16.10;99.90;;;;;;5425242;26;21063;-82
2024/04/12 08:57:42;;;;;;;0.50;0.40;;;16.00;99.90;;;;;;5435704;26;20451;-80
2024/04/12 09:00:18;;;;;;;1.00;0.83;;;16.10;99.90;;;;;;5435672;26;20458;-78
2024/04/12 09:02:51;;;;;;;1.37;0.70;;;16.20;99.90;;;;;;5431442;26;20519;-81
2024/04/12 09:05:22;;;;;;;6.80;2.50;;;16.30;99.90;;;;;;5426213;26;20454;-80
2024/04/12 09:07:51;;;;;;;0.50;0.50;;;16.40;99.90;;;;;;5430199;26;20451;-80
2024/04/12 09:10:17;;;;;;;0.80;0.80;;;16.40;99.90;;;;;;5425731;26;20450;-82
2024/04/12 09:12:46;;;;;;;0.50;0.40;;;16.40;99.90;;;;;;5423556;26;20475;-81
2024/04/12 09:15:24;;;;;;;0.50;0.40;;;16.20;99.90;;;;;;5423107;26;20525;-81
2024/04/12 09:17:59;;;;;;;1.10;1.00;;;16.20;99.90;;;;;;5424345;26;20461;-82
2024/04/12 09:20:30;;;;;;;0.50;0.40;;;16.20;99.90;;;;;;5423463;26;20521;-81
2024/04/12 09:23:13;;;;;;;0.50;0.40;;;16.10;99.90;;;;;;5411238;26;20463;-82
2024/04/12 09:25:44;;;;;;;1.70;1.17;;;16.20;99.90;;;;;;5408387;26;20637;-82
2024/04/12 09:28:14;;;;;;;1.20;1.00;;;16.30;99.90;;;;;;5414568;26;20459;-80
2024/04/12 09:33:31;;;;;;;3.73;1.50;;;16.40;99.90;;;;;;5426363;26;20505;-82
2024/04/12 09:36:04;;;;;;;1.73;0.60;;;16.50;99.90;;;;;;5423330;26;20451;-82
2024/04/12 09:38:33;;;;;;;0.50;0.50;;;16.50;99.90;;;;;;5423115;26;20460;-81
2024/04/12 09:41:13;;;;;;;0.60;0.50;;;16.60;99.90;;;;;;5421983;26;20465;-81
2024/04/12 09:43:47;;;;;;;0.60;0.57;;;16.70;99.90;;;;;;5421948;26;21068;-81
2024/04/12 09:46:23;;;;;;;0.50;0.40;;;16.80;99.90;;;;;;5422708;26;20519;-82
2024/04/12 10:39:11;;;;;;;0.50;0.40;;;17.50;99.90;;;;;;5425498;26;20522;-81
2024/04/12 10:41:41;;;;;;;2.13;0.87;;;18.00;99.90;;;;;;5422341;26;21060;-81
2024/04/12 10:44:10;;;;;;;0.50;0.40;;;18.50;99.90;;;;;;5422102;26;20884;-80
2024/04/12 10:46:39;;;;;;;1.33;1.23;;;18.60;99.90;;;;;;5421232;26;20565;-82
2024/04/12 10:49:05;;;;;;;0.50;0.40;;;18.80;99.90;;;;;;5422915;26;20458;-81
2024/04/12 10:51:39;;;;;;;0.50;0.50;;;18.70;99.90;;;;;;5422898;26;20514;-81
2024/04/12 10:54:10;;;;;;;1.00;1.00;;;18.70;99.90;;;;;;5423076;26;20610;-82
2024/04/12 10:56:47;;;;;;;1.10;1.10;;;18.70;99.90;;;;;;5420864;26;20470;-79
2024/04/12 10:59:26;;;;;;;1.00;0.90;;;18.50;99.90;;;;;;5422468;26;20477;-82
2024/04/12 11:01:55;;;;;;;0.50;0.40;;;18.40;99.90;;;;;;5406964;26;20999;-82
2024/04/12 11:04:22;;;;;;;0.50;0.50;;;18.50;99.90;;;;;;5421754;26;20458;-81
2024/04/12 11:06:54;;;;;;;0.50;0.40;;;18.50;99.90;;;;;;5422050;26;20879;-83
2024/04/12 11:09:30;;;;;;;1.47;1.40;;;18.70;99.90;;;;;;5422338;26;20466;-83
2024/04/12 11:12:09;;;;;;;1.33;1.23;;;18.80;99.90;;;;;;5421356;26;20520;-82
2024/04/12 11:14:35;;;;;;;0.80;0.77;;;18.90;99.90;;;;;;5422197;26;20514;-82
2024/04/12 11:31:14;;;;;;;3.23;1.27;;;18.70;99.90;;;;;;5379657;26;20863;-80
2024/04/12 11:33:51;;;;;;;0.60;0.40;;;18.80;99.90;;;;;;5420272;26;20462;-82
2024/04/12 11:36:22;;;;;;;0.50;0.40;;;18.90;99.90;;;;;;5422048;26;20518;-83
2024/04/12 11:38:53;;;;;;;0.60;0.60;;;19.30;99.90;;;;;;5421780;26;20676;-83
2024/04/12 11:41:23;;;;;;;0.60;0.60;;;19.90;99.90;;;;;;5420429;26;20479;-80
2024/04/12 11:43:51;;;;;;;0.80;0.80;;;20.10;99.90;;;;;;5421295;26;20459;-82
2024/04/12 11:46:23;;;;;;;2.30;1.60;;;20.10;99.90;;;;;;5422446;26;20515;-82
2024/04/12 11:48:53;;;;;;;0.67;0.67;;;20.30;99.90;;;;;;5420236;26;20521;-82
2024/04/12 11:51:22;;;;;;;0.57;0.50;;;20.30;99.90;;;;;;5422164;26;20524;-82
2024/04/12 11:53:51;;;;;;;1.43;1.33;;;21.20;99.90;;;;;;5421668;26;20509;-83
2024/04/12 11:56:22;;;;;;;0.70;0.70;;;21.50;99.90;;;;;;5421943;26;20468;-83
2024/04/12 11:58:48;;;;;;;0.80;0.80;;;21.70;99.90;;;;;;5421501;26;20554;-83
2024/04/12 12:01:16;;;;;;;0.60;0.50;;;21.70;99.90;;;;;;5421838;26;20469;-83
2024/04/12 12:03:42;;;;;;;0.50;0.40;;;21.80;99.90;;;;;;5421560;26;20317;-83
2024/04/12 12:06:13;;;;;;;0.83;0.83;;;21.10;99.90;;;;;;5422132;26;20479;-83
2024/04/12 12:08:41;;;;;;;0.50;0.40;;;20.40;99.90;;;;;;5421395;26;20229;-83
2024/04/12 12:11:13;;;;;;;0.50;0.33;;;20.70;99.90;;;;;;5435787;26;20467;-82
2024/04/12 12:13:42;;;;;;;0.50;0.30;;;21.00;99.90;;;;;;5435627;26;20559;-83
2024/04/12 12:16:14;;;;;;;0.50;0.40;;;20.90;99.90;;;;;;5428021;26;21057;-83
2024/04/12 12:18:41;;;;;;;0.50;0.40;;;20.50;99.90;;;;;;5428759;26;20466;-82
2024/04/12 12:21:10;;;;;;;1.80;1.10;;;19.90;99.90;;;;;;5423418;26;20532;-81
2024/04/12 12:23:36;;;;;;;0.83;0.70;;;19.60;99.90;;;;;;5422859;26;20522;-83
2024/04/12 12:26:08;;;;;;;1.90;0.77;;;19.20;99.90;;;;;;5421522;26;20542;-82
2024/04/12 12:28:37;;;;;;;4.30;0.70;;;19.40;99.90;;;;;;5422139;26;20504;-82
2024/04/12 12:31:06;;;;;;;0.57;0.43;;;19.70;99.90;;;;;;5421820;26;20525;-82
2024/04/12 12:33:38;;;;;;;0.80;0.50;;;19.80;99.90;;;;;;5421479;26;20504;-81
2024/04/12 12:36:07;;;;;;;0.50;0.50;;;19.70;99.90;;;;;;5428094;26;20507;-81
2024/04/12 12:38:33;;;;;;;0.50;0.40;;;19.70;99.90;;;;;;5428114;26;21004;-82
2024/04/12 12:41:03;;;;;;;0.50;0.30;;;19.80;99.90;;;;;;5419790;26;20509;-80
2024/04/12 12:43:29;;;;;;;0.50;0.40;;;20.40;99.90;;;;;;5416852;26;20455;-79
2024/04/12 12:46:00;;;;;;;0.50;0.40;;;20.70;99.90;;;;;;5416737;26;20819;-83
2024/04/12 12:48:27;;;;;;;0.50;0.40;;;20.70;99.90;;;;;;5418566;26;20330;-79
2024/04/12 12:50:57;;;;;;;2.03;1.83;;;20.60;99.90;;;;;;5430351;26;20843;-78
2024/04/12 12:53:26;;;;;;;0.50;0.30;;;20.50;99.90;;;;;;5427695;26;20580;-83
2024/04/12 12:55:55;;;;;;;0.50;0.40;;;20.70;99.90;;;;;;5424590;26;20460;-81
2024/04/12 12:58:24;;;;;;;0.50;0.30;;;20.90;99.90;;;;;;5421743;26;20473;-82
2024/04/12 13:00:59;;;;;;;0.50;0.33;;;21.10;99.90;;;;;;5419192;26;20502;-83
2024/04/12 13:03:29;;;;;;;0.50;0.30;;;21.20;99.90;;;;;;5421140;26;20445;-82
2024/04/12 13:05:58;;;;;;;0.50;0.30;;;21.00;99.90;;;;;;5421802;26;20561;-82
2024/04/12 13:08:25;;;;;;;5.07;0.60;;;20.70;99.90;;;;;;5420862;26;20513;-82
2024/04/12 13:10:56;;;;;;;0.50;0.30;;;20.30;99.90;;;;;;5421773;26;20458;-82
2024/04/12 13:13:22;;;;;;;0.50;0.40;;;20.00;99.90;;;;;;5421279;26;20831;-82
2024/04/12 13:15:54;;;;;;;0.50;0.50;;;20.10;99.90;;;;;;5420957;26;20451;-81
2024/04/12 13:18:21;;;;;;;0.50;0.30;;;20.00;99.90;;;;;;5421226;26;20515;-82
2024/04/12 13:20:55;;;;;;;0.60;0.60;;;19.80;99.90;;;;;;5420549;26;20549;-82
2024/04/12 13:23:24;;;;;;;0.50;0.40;;;19.80;99.90;;;;;;5420970;26;20518;-82
2024/04/12 13:25:53;;;;;;;4.93;1.07;;;19.80;99.90;;;;;;5420784;26;20450;-81
2024/04/12 13:28:19;;;;;;;0.50;0.40;;;19.80;99.90;;;;;;5425781;26;20504;-82
2024/04/12 13:30:47;;;;;;;0.50;0.40;;;19.90;99.90;;;;;;5428702;26;20870;-80
2024/04/12 13:33:14;;;;;;;0.50;0.40;;;20.00;99.90;;;;;;5431170;26;20594;-82
2024/04/12 13:35:43;;;;;;;0.50;0.40;;;20.10;99.90;;;;;;5426804;26;20525;-81
2024/04/12 13:38:12;;;;;;;0.50;0.30;;;20.20;99.90;;;;;;5425007;26;20466;-83
2024/04/12 13:40:45;;;;;;;0.77;0.77;;;20.20;99.90;;;;;;5426678;26;20443;-81
2024/04/12 13:43:13;;;;;;;0.50;0.30;;;20.10;99.90;;;;;;5429761;26;20450;-82
2024/04/12 13:51:15;;;;;;;0.50;0.30;;;20.60;99.90;;;;;;5426250;26;20498;-82
2024/04/12 13:53:50;;;;;;;0.50;0.40;;;20.80;99.90;;;;;;5424218;26;20451;-82
2024/04/12 13:59:10;;;;;;;1.30;1.20;;;21.30;99.90;;;;;;5422801;26;20798;-82
2024/04/12 14:01:40;;;;;;;0.50;0.40;;;21.20;99.90;;;;;;5423194;26;20450;-80
2024/04/12 14:04:09;;;;;;;0.60;0.50;;;21.90;99.90;;;;;;5424103;26;20449;-82
2024/04/12 14:06:36;;;;;;;0.50;0.40;;;22.90;99.90;;;;;;5423591;26;20449;-82
2024/04/12 14:09:09;;;;;;;2.97;1.70;;;22.90;99.90;;;;;;5423576;26;20580;-82
2024/04/12 14:11:35;;;;;;;0.53;0.47;;;22.40;99.90;;;;;;5424227;26;20466;-82
2024/04/12 14:14:04;;;;;;;0.50;0.40;;;21.90;99.90;;;;;;5423256;26;20448;-82
2024/04/12 14:16:32;;;;;;;0.50;0.40;;;21.80;99.90;;;;;;5423397;26;20515;-82
2024/04/12 14:19:01;;;;;;;0.50;0.40;;;21.60;99.90;;;;;;5423419;26;20520;-82